createdAt,value
2022-09-23T00:00:47.579Z,82.34
2022-09-23T00:03:15.615Z,82.97
2022-09-23T00:05:42.910Z,83.29
2022-09-23T00:08:11.879Z,83.02
2022-09-23T00:10:40.259Z,82.59
2022-09-23T00:13:07.143Z,82.54
2022-09-23T00:15:39.938Z,81.85
2022-09-23T00:18:06.734Z,82.09
2022-09-23T00:20:34.999Z,82.24
2022-09-23T00:23:02.877Z,82.09
2022-09-23T00:25:29.760Z,83.37
2022-09-23T00:27:57.248Z,83.70
2022-09-23T00:30:24.178Z,82.63
2022-09-23T00:32:50.940Z,83.46
2022-09-23T00:35:17.722Z,83.17
2022-09-23T00:37:44.524Z,82.96
2022-09-23T00:40:11.494Z,83.54
2022-09-23T00:42:38.322Z,83.86
2022-09-23T00:45:05.389Z,83.21
2022-09-23T00:47:45.059Z,82.74
2022-09-23T00:50:21.089Z,83.12
2022-09-23T00:52:50.849Z,83.48
2022-09-23T00:55:42.453Z,83.97
2022-09-23T00:58:12.201Z,84.19
2022-09-23T01:00:39.164Z,83.82
2022-09-23T01:03:07.256Z,83.70
2022-09-23T01:05:34.463Z,83.74
2022-09-23T01:08:03.851Z,83.35
2022-09-23T01:10:40.643Z,83.81
2022-09-23T01:13:24.403Z,83.61
2022-09-23T01:16:14.426Z,83.95
2022-09-23T01:18:50.356Z,84.04
2022-09-23T01:22:13.811Z,84.18
2022-09-23T01:25:19.278Z,84.12
2022-09-23T01:28:15.186Z,83.92
2022-09-23T01:30:48.315Z,84.54
2022-09-23T01:33:42.566Z,85.09
2022-09-23T01:36:30.120Z,84.49
2022-09-23T01:39:35.057Z,84.90
2022-09-23T01:42:16.365Z,84.59
2022-09-23T01:44:49.943Z,84.59
2022-09-23T01:47:28.555Z,83.77
2022-09-23T01:50:08.838Z,84.87
2022-09-23T01:52:47.070Z,85.20
2022-09-23T01:55:22.537Z,85.23
2022-09-23T01:58:27.757Z,84.82
2022-09-23T02:01:03.561Z,84.02
2022-09-23T02:03:58.755Z,84.71
2022-09-23T02:06:55.878Z,84.06
2022-09-23T02:09:28.286Z,84.87
2022-09-23T02:12:00.546Z,84.59
2022-09-23T02:14:46.319Z,85.15
2022-09-23T02:17:23.107Z,84.67
2022-09-23T02:20:02.191Z,84.34
2022-09-23T02:23:07.608Z,85.56
2022-09-23T02:25:59.256Z,84.61
2022-09-23T02:28:49.829Z,85.34
2022-09-23T02:31:43.693Z,85.34
2022-09-23T02:34:39.439Z,85.49
2022-09-23T02:37:21.161Z,85.27
2022-09-23T02:40:02.970Z,86.41
2022-09-23T02:42:50.029Z,85.75
2022-09-23T02:45:18.578Z,86.27
2022-09-23T02:47:51.989Z,86.13
2022-09-23T02:50:19.381Z,85.55
2022-09-23T02:52:46.751Z,85.07
2022-09-23T02:55:17.881Z,86.25
2022-09-23T02:57:45.925Z,86.00
2022-09-23T03:00:13.396Z,85.47
2022-09-23T03:02:49.055Z,85.77
2022-09-23T03:05:25.081Z,85.78
2022-09-23T03:07:51.739Z,86.13
2022-09-23T03:10:48.713Z,86.64
2022-09-23T03:13:35.772Z,85.91
2022-09-23T03:16:11.311Z,86.53
2022-09-23T03:18:48.722Z,85.94
2022-09-23T03:21:31.911Z,86.74
2022-09-23T03:24:02.795Z,86.47
2022-09-23T03:26:36.294Z,87.03
2022-09-23T03:29:09.833Z,86.71
2022-09-23T03:31:38.307Z,86.55
2022-09-23T03:34:16.348Z,86.61
2022-09-23T03:37:03.284Z,87.04
2022-09-23T03:39:44.404Z,86.77
2022-09-23T03:42:17.192Z,86.17
2022-09-23T03:44:46.646Z,87.07
2022-09-23T03:47:15.429Z,86.04
2022-09-23T03:49:46.386Z,86.79
2022-09-23T03:52:13.156Z,86.65
2022-09-23T03:54:39.838Z,87.07
2022-09-23T03:57:06.948Z,85.82
2022-09-23T03:59:34.149Z,86.84
2022-09-23T04:02:01.284Z,87.31
2022-09-23T04:04:28.736Z,86.46
2022-09-23T04:06:56.551Z,86.28
2022-09-23T04:09:23.539Z,86.36
2022-09-23T04:11:54.097Z,86.54
2022-09-23T04:14:22.137Z,85.93
2022-09-23T04:16:50.205Z,86.74
2022-09-23T04:19:18.087Z,86.42
2022-09-23T04:21:45.608Z,86.60
2022-09-23T04:24:13.988Z,86.73
2022-09-23T04:26:41.726Z,86.26
2022-09-23T04:29:08.836Z,86.42
2022-09-23T04:31:35.721Z,86.40
2022-09-23T04:34:02.817Z,85.93
2022-09-23T04:36:29.732Z,86.32
2022-09-23T04:38:56.839Z,86.38
2022-09-23T04:41:23.721Z,86.16
2022-09-23T04:43:50.497Z,85.98
2022-09-23T04:46:17.389Z,85.55
2022-09-23T04:48:44.759Z,85.96
2022-09-23T04:51:19.272Z,86.13
2022-09-23T04:53:48.181Z,87.39
2022-09-23T04:56:17.778Z,87.95
2022-09-23T04:58:45.231Z,87.57
2022-09-23T05:01:14.461Z,87.06
2022-09-23T05:03:42.482Z,88.08
2022-09-23T05:06:10.720Z,87.85
2022-09-23T05:08:37.524Z,88.63
2022-09-23T05:11:05.294Z,88.12
2022-09-23T05:13:32.411Z,87.84
2022-09-23T05:16:00.374Z,87.89
2022-09-23T05:18:34.483Z,87.36
2022-09-23T05:21:02.126Z,88.10
2022-09-23T05:23:30.245Z,88.16
2022-09-23T05:25:59.639Z,88.18
2022-09-23T05:28:27.814Z,88.27
2022-09-23T05:31:00.993Z,88.03
2022-09-23T05:33:28.086Z,88.34
2022-09-23T05:35:54.823Z,88.07
2022-09-23T05:38:21.599Z,88.95
2022-09-23T05:40:58.454Z,89.45
2022-09-23T05:43:26.065Z,89.59
2022-09-23T05:46:03.022Z,89.78
2022-09-23T05:48:32.846Z,89.08
2022-09-23T05:51:00.742Z,89.84
2022-09-23T05:53:28.773Z,89.79
2022-09-23T05:55:58.677Z,89.90
2022-09-23T05:58:25.635Z,89.43
2022-09-23T06:00:52.622Z,89.91
2022-09-23T06:03:20.576Z,88.97
2022-09-23T06:05:47.806Z,88.53
2022-09-23T06:08:15.069Z,87.90
2022-09-23T06:10:44.339Z,88.16
2022-09-23T06:13:11.846Z,88.18
2022-09-23T06:15:39.607Z,87.58
2022-09-23T06:18:07.459Z,88.85
2022-09-23T06:20:34.704Z,88.39
2022-09-23T06:23:10.896Z,88.84
2022-09-23T06:25:38.411Z,88.02
2022-09-23T06:28:05.317Z,88.29
2022-09-23T06:30:32.179Z,88.61
2022-09-23T06:32:59.122Z,88.30
2022-09-23T06:35:27.839Z,88.29
2022-09-23T06:37:55.322Z,88.30
2022-09-23T06:40:23.838Z,86.60
2022-09-23T06:42:58.449Z,86.21
2022-09-23T06:45:25.992Z,85.06
2022-09-23T06:47:57.899Z,84.88
2022-09-23T06:50:27.919Z,84.54
2022-09-23T06:52:55.642Z,84.41
2022-09-23T06:55:26.640Z,84.65
2022-09-23T06:57:55.711Z,84.81
2022-09-23T07:00:22.546Z,84.36
2022-09-23T07:02:49.431Z,83.38
2022-09-23T07:05:16.889Z,83.66
2022-09-23T07:07:46.573Z,82.98
2022-09-23T07:10:13.350Z,82.71
2022-09-23T07:12:41.007Z,82.72
2022-09-23T07:15:08.789Z,82.76
2022-09-23T07:17:35.573Z,81.31
2022-09-23T07:20:02.950Z,80.45
2022-09-23T07:22:29.753Z,79.79
2022-09-23T07:24:56.516Z,80.60
2022-09-23T07:27:27.849Z,80.15
2022-09-23T07:29:54.674Z,79.48
2022-09-23T07:32:22.845Z,79.20
2022-09-23T07:34:50.226Z,78.77
2022-09-23T07:37:18.318Z,77.19
2022-09-23T07:39:45.779Z,77.29
2022-09-23T07:42:12.617Z,75.61
2022-09-23T07:44:40.425Z,76.10
2022-09-23T07:47:07.329Z,75.94
2022-09-23T07:49:35.597Z,75.58
2022-09-23T07:52:03.464Z,72.99
2022-09-23T07:54:30.224Z,74.31
2022-09-23T07:56:57.358Z,74.39
2022-09-23T07:59:24.256Z,73.26
2022-09-23T08:01:52.844Z,73.10
2022-09-23T08:04:24.118Z,71.12
2022-09-23T08:07:02.723Z,71.35
2022-09-23T08:09:33.562Z,70.63
2022-09-23T08:12:00.610Z,70.04
2022-09-23T08:14:27.407Z,70.68
2022-09-23T08:16:54.222Z,69.65
2022-09-23T08:19:21.092Z,69.30
2022-09-23T08:21:48.018Z,69.77
2022-09-23T08:24:18.151Z,68.59
2022-09-23T08:26:46.641Z,69.59
2022-09-23T08:29:16.255Z,68.01
2022-09-23T08:31:43.573Z,67.86
2022-09-23T08:34:11.021Z,66.81
2022-09-23T08:36:37.841Z,67.89
2022-09-23T08:39:06.165Z,67.44
2022-09-23T08:41:45.073Z,66.36
2022-09-23T08:44:28.133Z,66.81
2022-09-23T08:47:09.374Z,64.62
2022-09-23T08:49:58.591Z,65.59
2022-09-23T08:53:05.613Z,66.29
2022-09-23T08:55:59.765Z,64.65
2022-09-23T08:58:49.525Z,63.92
2022-09-23T09:01:34.427Z,64.74
2022-09-23T09:04:23.177Z,65.20
2022-09-23T09:07:34.782Z,63.38
2022-09-23T09:10:18.814Z,62.13
2022-09-23T09:12:49.172Z,63.84
2022-09-23T09:15:24.676Z,63.85
2022-09-23T09:18:13.165Z,62.97
2022-09-23T09:20:59.716Z,61.35
2022-09-23T09:23:29.286Z,60.46
2022-09-23T09:26:01.262Z,61.59
2022-09-23T09:28:37.456Z,61.85
2022-09-23T09:31:27.589Z,61.77
2022-09-23T09:34:11.179Z,59.84
2022-09-23T09:37:00.429Z,59.93
2022-09-23T09:39:29.079Z,60.62
2022-09-23T09:41:55.896Z,59.43
2022-09-23T09:44:44.338Z,60.04
2022-09-23T09:47:17.260Z,60.71
2022-09-23T09:49:54.058Z,59.08
2022-09-23T09:52:26.230Z,59.63
2022-09-23T09:54:53.182Z,59.39
2022-09-23T09:57:45.874Z,59.25
2022-09-23T10:00:21.816Z,59.43
2022-09-23T10:02:57.652Z,57.18
2022-09-23T10:05:31.914Z,58.73
2022-09-23T10:08:26.684Z,58.71
2022-09-23T10:10:59.639Z,59.75
2022-09-23T10:13:27.841Z,59.72
2022-09-23T10:15:55.469Z,57.81
2022-09-23T10:18:47.154Z,56.68
2022-09-23T10:21:17.102Z,56.20
2022-09-23T10:23:56.012Z,55.93
2022-09-23T10:26:34.051Z,56.53
2022-09-23T10:29:19.395Z,57.23
2022-09-23T10:31:46.225Z,57.99
2022-09-23T10:34:28.947Z,57.07
2022-09-23T10:37:03.488Z,54.76
2022-09-23T10:39:30.309Z,55.59
2022-09-23T10:42:15.657Z,55.46
2022-09-23T10:45:01.556Z,56.31
2022-09-23T10:47:51.125Z,55.40
2022-09-23T10:50:35.544Z,56.73
2022-09-23T10:53:23.988Z,55.04
2022-09-23T10:55:50.701Z,55.05
2022-09-23T10:58:17.328Z,54.67
2022-09-23T11:00:47.291Z,56.01
2022-09-23T11:03:50.388Z,55.17
2022-09-23T11:06:56.252Z,55.00
2022-09-23T11:09:41.492Z,55.90
2022-09-23T11:12:33.765Z,55.96
2022-09-23T11:15:06.226Z,54.75
2022-09-23T11:18:06.589Z,53.74
2022-09-23T11:20:39.631Z,55.30
2022-09-23T11:23:24.680Z,54.12
2022-09-23T11:26:10.607Z,55.03
2022-09-23T11:28:52.235Z,54.16
2022-09-23T11:31:43.217Z,55.18
2022-09-23T11:34:31.385Z,54.70
2022-09-23T11:37:08.456Z,55.66
2022-09-23T11:39:42.828Z,54.06
2022-09-23T11:42:20.180Z,55.14
2022-09-23T11:44:58.410Z,53.89
2022-09-23T11:47:39.738Z,54.12
2022-09-23T11:50:36.551Z,53.45
2022-09-23T11:53:20.360Z,53.70
2022-09-23T11:56:07.636Z,54.57
2022-09-23T11:58:51.118Z,52.52
2022-09-23T12:01:37.698Z,53.21
2022-09-23T12:04:17.791Z,51.05
2022-09-23T12:06:53.327Z,52.58
2022-09-23T12:09:57.865Z,52.27
2022-09-23T12:13:00.408Z,51.44
2022-09-23T12:15:56.178Z,51.03
2022-09-23T12:18:38.889Z,52.43
2022-09-23T12:21:32.788Z,52.66
2022-09-23T12:24:37.559Z,51.59
2022-09-23T12:27:09.201Z,50.36
2022-09-23T12:29:38.475Z,50.48
2022-09-23T12:32:05.485Z,50.23
2022-09-23T12:34:42.777Z,50.30
2022-09-23T12:37:09.911Z,51.73
2022-09-23T12:39:38.698Z,50.48
2022-09-23T12:42:15.502Z,50.65
2022-09-23T12:44:45.004Z,51.48
2022-09-23T12:47:14.493Z,52.03
2022-09-23T12:49:43.253Z,50.15
2022-09-23T12:52:13.592Z,49.29
2022-09-23T12:54:41.907Z,50.05
2022-09-23T12:57:34.912Z,51.34
2022-09-23T13:00:07.829Z,48.52
2022-09-23T13:02:39.072Z,50.14
2022-09-23T13:05:08.709Z,50.36
2022-09-23T13:07:40.849Z,48.54
2022-09-23T13:10:39.991Z,48.59
2022-09-23T13:13:18.213Z,47.81
2022-09-23T13:15:45.656Z,47.90
2022-09-23T13:18:21.610Z,48.05
2022-09-23T13:20:55.701Z,48.33
2022-09-23T13:23:27.980Z,47.99
2022-09-23T13:25:59.383Z,49.10
2022-09-23T13:28:32.193Z,48.56
2022-09-23T13:31:02.487Z,48.49
2022-09-23T13:33:51.785Z,47.62
2022-09-23T13:36:20.164Z,47.81
2022-09-23T13:38:47.060Z,45.92
2022-09-23T13:41:15.484Z,47.05
2022-09-23T13:43:49.703Z,46.67
2022-09-23T13:46:27.357Z,47.16
2022-09-23T13:48:55.620Z,47.73
2022-09-23T13:51:33.077Z,46.32
2022-09-23T13:54:03.410Z,46.44
2022-09-23T13:56:32.538Z,46.84
2022-09-23T13:59:31.835Z,46.31
2022-09-23T14:02:12.482Z,47.37
2022-09-23T14:04:39.872Z,46.43
2022-09-23T14:07:13.222Z,46.01
2022-09-23T14:09:45.192Z,46.96
2022-09-23T14:12:12.333Z,46.92
2022-09-23T14:14:41.066Z,47.90
2022-09-23T14:17:09.022Z,46.54
2022-09-23T14:19:37.086Z,47.12
2022-09-23T14:22:05.637Z,48.18
2022-09-23T14:24:36.794Z,47.11
2022-09-23T14:27:06.566Z,46.58
2022-09-23T14:29:37.061Z,47.15
2022-09-23T14:32:20.800Z,46.68
2022-09-23T14:35:06.176Z,48.08
2022-09-23T14:37:39.071Z,48.29
2022-09-23T14:40:12.472Z,47.15
2022-09-23T14:42:43.841Z,47.30
2022-09-23T14:45:16.033Z,47.50
2022-09-23T14:47:52.263Z,47.78
2022-09-23T14:50:25.594Z,47.21
2022-09-23T14:52:52.625Z,47.09
2022-09-23T14:55:19.546Z,48.19
2022-09-23T14:57:46.285Z,47.10
2022-09-23T15:00:17.515Z,47.57
2022-09-23T15:03:02.742Z,47.26
2022-09-23T15:05:45.838Z,47.13
2022-09-23T15:08:18.876Z,47.02
2022-09-23T15:10:46.251Z,47.53
2022-09-23T15:13:18.010Z,47.13
2022-09-23T15:15:45.296Z,47.68
2022-09-23T15:18:23.217Z,47.79
2022-09-23T15:20:52.460Z,47.54
2022-09-23T15:23:52.720Z,46.74
2022-09-23T15:26:25.640Z,47.12
2022-09-23T15:28:56.087Z,48.44
2022-09-23T15:31:24.146Z,47.62
2022-09-23T15:33:51.448Z,46.67
2022-09-23T15:36:24.594Z,46.08
2022-09-23T15:38:51.954Z,47.10
2022-09-23T15:41:19.033Z,47.36
2022-09-23T15:43:45.914Z,46.74
2022-09-23T15:46:21.895Z,48.26
2022-09-23T15:49:05.294Z,48.09
2022-09-23T15:51:32.309Z,47.19
2022-09-23T15:53:59.055Z,46.65
2022-09-23T15:56:25.944Z,48.10
2022-09-23T15:58:52.843Z,47.84
2022-09-23T16:01:28.256Z,47.73
2022-09-23T16:03:55.247Z,47.50
2022-09-23T16:06:22.348Z,48.33
2022-09-23T16:08:49.219Z,48.12
2022-09-23T16:11:22.151Z,48.85
2022-09-23T16:13:48.901Z,49.35
2022-09-23T16:16:15.911Z,48.76
2022-09-23T16:18:43.041Z,49.17
2022-09-23T16:21:12.961Z,48.57
2022-09-23T16:23:43.741Z,48.95
2022-09-23T16:26:10.495Z,49.23
2022-09-23T16:28:37.293Z,49.26
2022-09-23T16:31:04.284Z,49.37
2022-09-23T16:33:31.113Z,49.26
2022-09-23T16:35:58.796Z,49.85
2022-09-23T16:38:25.465Z,49.81
2022-09-23T16:40:52.475Z,49.65
2022-09-23T16:43:19.177Z,49.73
2022-09-23T16:45:45.992Z,49.93
2022-09-23T16:48:12.865Z,50.23
2022-09-23T16:50:39.573Z,50.33
2022-09-23T16:53:06.406Z,50.77
2022-09-23T16:55:33.121Z,50.92
2022-09-23T16:57:59.834Z,51.01
2022-09-23T17:00:26.709Z,50.80
2022-09-23T17:02:53.486Z,50.95
2022-09-23T17:05:20.295Z,50.37
2022-09-23T17:07:46.977Z,51.12
2022-09-23T17:10:13.777Z,51.37
2022-09-23T17:12:40.596Z,51.54
2022-09-23T17:15:08.598Z,51.81
2022-09-23T17:17:36.377Z,51.83
2022-09-23T17:20:05.375Z,52.61
2022-09-23T17:22:34.637Z,52.97
2022-09-23T17:25:01.952Z,53.19
2022-09-23T17:27:28.684Z,53.47
2022-09-23T17:29:55.638Z,54.04
2022-09-23T17:32:22.341Z,55.40
2022-09-23T17:34:49.259Z,55.60
2022-09-23T17:37:16.066Z,55.39
2022-09-23T17:39:43.009Z,56.17
2022-09-23T17:42:09.829Z,56.36
2022-09-23T17:44:36.558Z,57.02
2022-09-23T17:47:03.421Z,56.86
2022-09-23T17:49:30.182Z,57.27
2022-09-23T17:51:56.941Z,57.06
2022-09-23T17:54:23.712Z,57.02
2022-09-23T17:56:50.502Z,58.32
2022-09-23T17:59:17.268Z,57.81
2022-09-23T18:01:44.236Z,57.88
2022-09-23T18:04:11.072Z,58.77
2022-09-23T18:06:38.024Z,58.96
2022-09-23T18:09:06.991Z,60.31
2022-09-23T18:11:36.551Z,59.92
2022-09-23T18:14:05.747Z,61.29
2022-09-23T18:16:37.842Z,61.07
2022-09-23T18:19:05.105Z,61.26
2022-09-23T18:21:34.476Z,61.13
2022-09-23T18:26:48.740Z,62.08
2022-09-23T18:29:16.060Z,61.94
2022-09-23T18:31:43.652Z,61.53
2022-09-23T18:34:13.155Z,62.13
2022-09-23T18:36:40.266Z,62.61
2022-09-23T18:39:07.077Z,62.84
2022-09-23T18:41:34.985Z,63.44
2022-09-23T18:44:02.866Z,63.75
2022-09-23T18:46:31.147Z,64.60
2022-09-23T18:48:59.291Z,64.26
2022-09-23T18:51:26.979Z,65.20
2022-09-23T18:53:54.020Z,64.47
2022-09-23T18:56:20.758Z,65.04
2022-09-23T18:58:49.239Z,63.98
2022-09-23T19:01:16.664Z,64.24
2022-09-23T19:03:43.768Z,65.14
2022-09-23T19:06:14.338Z,65.51
2022-09-23T19:08:44.675Z,65.49
2022-09-23T19:11:13.384Z,66.48
2022-09-23T19:13:40.974Z,66.67
2022-09-23T19:16:10.921Z,67.38
2022-09-23T19:18:39.722Z,66.71
2022-09-23T19:21:11.884Z,67.38
2022-09-23T19:23:40.140Z,67.22
2022-09-23T19:26:09.866Z,66.65
2022-09-23T19:28:37.693Z,66.53
2022-09-23T19:31:12.847Z,66.55
2022-09-23T19:33:39.714Z,67.01
2022-09-23T19:36:06.935Z,66.55
2022-09-23T19:38:33.704Z,65.96
2022-09-23T19:41:05.266Z,67.19
2022-09-23T19:43:32.264Z,68.19
2022-09-23T19:45:59.064Z,68.86
2022-09-23T19:48:25.815Z,68.87
2022-09-23T19:50:52.654Z,69.02
2022-09-23T19:53:19.635Z,68.18
2022-09-23T19:55:46.610Z,68.98
2022-09-23T19:58:13.424Z,68.05
2022-09-23T20:00:40.815Z,67.75
2022-09-23T20:03:09.158Z,67.50
2022-09-23T20:05:35.947Z,67.94
2022-09-23T20:08:05.378Z,67.38
2022-09-23T20:10:33.066Z,68.98
2022-09-23T20:12:59.919Z,68.87
2022-09-23T20:15:26.676Z,68.85
2022-09-23T20:17:53.486Z,69.14
2022-09-23T20:20:20.576Z,68.12
2022-09-23T20:22:47.350Z,67.94
2022-09-23T20:25:14.240Z,69.03
2022-09-23T20:27:40.983Z,68.88
2022-09-23T20:30:08.360Z,70.12
2022-09-23T20:32:35.245Z,69.90
2022-09-23T20:35:02.038Z,69.49
2022-09-23T20:37:28.859Z,70.00
2022-09-23T20:39:55.837Z,70.67
2022-09-23T20:42:22.622Z,71.91
2022-09-23T20:44:49.888Z,71.33
2022-09-23T20:47:17.970Z,71.37
2022-09-23T20:49:46.047Z,72.15
2022-09-23T20:52:17.610Z,71.74
2022-09-23T20:54:44.403Z,73.48
2022-09-23T20:57:12.928Z,71.85
2022-09-23T20:59:40.396Z,71.06
2022-09-23T21:02:08.342Z,72.86
2022-09-23T21:04:35.119Z,72.79
2022-09-23T21:07:02.269Z,73.43
2022-09-23T21:09:29.900Z,73.50
2022-09-23T21:11:57.360Z,72.92
2022-09-23T21:14:24.211Z,72.35
2022-09-23T21:16:51.401Z,73.24
2022-09-23T21:19:18.613Z,72.69
2022-09-23T21:21:45.661Z,72.59
2022-09-23T21:24:43.762Z,72.88
2022-09-23T21:26:59.342Z,72.50
2022-09-23T21:29:26.123Z,72.82
2022-09-23T21:31:52.958Z,73.34
2022-09-23T21:34:19.823Z,72.97
2022-09-23T21:36:47.824Z,72.36
2022-09-23T21:39:14.568Z,72.53
2022-09-23T21:41:41.499Z,73.15
2022-09-23T21:44:08.525Z,72.68
2022-09-23T21:46:36.962Z,73.25
2022-09-23T21:49:04.324Z,72.35
2022-09-23T21:51:37.222Z,72.01
2022-09-23T21:54:05.008Z,71.68
2022-09-23T21:56:32.883Z,71.67
2022-09-23T21:58:59.635Z,71.68
2022-09-23T22:01:31.735Z,72.47
2022-09-23T22:04:01.595Z,73.73
2022-09-23T22:06:28.886Z,72.97
2022-09-23T22:09:01.385Z,72.27
2022-09-23T22:11:31.535Z,73.54
2022-09-23T22:14:00.222Z,73.29
2022-09-23T22:16:28.593Z,74.21
2022-09-23T22:18:57.516Z,74.61
2022-09-23T22:21:26.592Z,74.80
2022-09-23T22:23:55.247Z,74.37
2022-09-23T22:26:22.028Z,75.08
2022-09-23T22:28:48.946Z,74.19
2022-09-23T22:31:15.992Z,73.13
2022-09-23T22:33:42.812Z,73.16
2022-09-23T22:36:09.543Z,74.35
2022-09-23T22:38:36.311Z,74.39
2022-09-23T22:41:03.444Z,73.89
2022-09-23T22:43:33.231Z,74.37
2022-09-23T22:45:59.994Z,74.34
2022-09-23T22:48:26.696Z,75.35
2022-09-23T22:50:53.660Z,75.17
2022-09-23T22:53:20.389Z,74.55
2022-09-23T22:55:57.739Z,73.63
2022-09-23T22:58:32.203Z,74.53
2022-09-23T23:00:59.750Z,75.63
2022-09-23T23:03:26.654Z,74.51
2022-09-23T23:05:54.135Z,74.30
2022-09-23T23:08:21.301Z,73.59
2022-09-23T23:10:48.089Z,75.23
2022-09-23T23:13:14.921Z,75.72
2022-09-23T23:15:41.754Z,74.50
2022-09-23T23:18:08.719Z,76.57
2022-09-23T23:20:35.525Z,76.83
2022-09-23T23:23:02.419Z,77.02
2022-09-23T23:25:29.680Z,76.94
2022-09-23T23:27:56.720Z,77.34
2022-09-23T23:30:24.182Z,76.02
2022-09-23T23:32:51.008Z,74.99
2022-09-23T23:35:17.794Z,76.38
2022-09-23T23:37:44.613Z,76.64
2022-09-23T23:40:11.444Z,77.16
2022-09-23T23:42:38.268Z,77.04
2022-09-23T23:45:05.592Z,77.65
2022-09-23T23:47:32.452Z,77.70
2022-09-23T23:49:59.272Z,77.36
2022-09-23T23:52:26.064Z,77.94
2022-09-23T23:54:52.794Z,77.69
2022-09-23T23:57:19.565Z,77.53
2022-09-23T23:59:46.313Z,77.25
